Time;durP1;ratioP1;P1;durP2;ratioP2;P2;SDS_P1;SDS_P2;PMS_P1;PMS_P2;Temp;Humidity;BMP_temperature;BMP_pressure;BME280_temperature;BME280_humidity;BME280_pressure;Samples;Min_cycle;Max_cycle;Signal;HPM_P1;HPM_P2
2021/08/12 00:02:01;;;;;;;7.25;6.20;;;;;;;;;;5002288;28;20026;-62
2021/08/12 00:04:28;;;;;;;9.43;6.72;;;;;;;;;;5004204;28;20109;-59
2021/08/12 00:06:54;;;;;;;9.50;6.22;;;;;;;;;;5015014;28;20026;-60
2021/08/12 00:09:20;;;;;;;9.63;6.30;;;;;;;;;;5001272;28;20053;-61
2021/08/12 00:11:46;;;;;;;6.88;6.10;;;;;;;;;;5010611;28;20022;-61
2021/08/12 00:14:12;;;;;;;9.70;6.38;;;;;;;;;;5011002;28;20045;-61
2021/08/12 00:16:38;;;;;;;8.55;6.55;;;;;;;;;;5011202;28;20049;-62
2021/08/12 00:19:04;;;;;;;9.20;6.65;;;;;;;;;;5012946;28;20030;-61
2021/08/12 00:21:32;;;;;;;9.32;5.97;;;;;;;;;;5007504;28;20118;-61
2021/08/12 00:23:58;;;;;;;7.65;6.50;;;;;;;;;;5001751;28;20408;-61
2021/08/12 00:26:24;;;;;;;7.35;6.28;;;;;;;;;;5013998;28;20108;-61
2021/08/12 00:28:50;;;;;;;7.70;6.45;;;;;;;;;;5006067;28;20038;-61
2021/08/12 00:31:16;;;;;;;8.90;6.53;;;;;;;;;;5007106;28;20034;-61
2021/08/12 00:33:41;;;;;;;8.50;6.75;;;;;;;;;;5012130;28;20030;-62
2021/08/12 00:36:07;;;;;;;9.73;7.07;;;;;;;;;;5014623;28;20351;-62
2021/08/12 00:38:33;;;;;;;12.07;6.82;;;;;;;;;;5012245;28;20022;-62
2021/08/12 00:40:59;;;;;;;7.57;6.57;;;;;;;;;;5003535;28;20479;-64
2021/08/12 00:43:25;;;;;;;11.50;6.97;;;;;;;;;;5011568;28;20030;-61
2021/08/12 00:45:52;;;;;;;10.18;6.80;;;;;;;;;;5003231;28;20402;-62
2021/08/12 00:48:18;;;;;;;10.63;7.28;;;;;;;;;;5003240;28;20054;-62
2021/08/12 00:50:45;;;;;;;9.65;7.18;;;;;;;;;;5002715;28;20039;-62
2021/08/12 00:53:11;;;;;;;10.30;7.43;;;;;;;;;;5002524;28;20108;-62
2021/08/12 00:55:42;;;;;;;8.88;7.10;;;;;;;;;;5011925;28;20417;-62
2021/08/12 00:58:08;;;;;;;10.27;7.82;;;;;;;;;;4997816;28;20498;-62
2021/08/12 01:00:35;;;;;;;10.40;7.72;;;;;;;;;;5004141;28;20057;-62
2021/08/12 01:03:02;;;;;;;10.45;7.32;;;;;;;;;;5003230;28;20025;-62
2021/08/12 01:05:30;;;;;;;8.13;6.88;;;;;;;;;;5009723;28;20103;-62
2021/08/12 01:08:00;;;;;;;8.13;6.20;;;;;;;;;;5010060;28;20053;-62
2021/08/12 01:10:38;;;;;;;9.60;6.07;;;;;;;;;;5001180;28;20076;-62
2021/08/12 01:13:06;;;;;;;9.43;6.55;;;;;;;;;;4996093;28;20034;-62
2021/08/12 01:15:36;;;;;;;10.23;5.65;;;;;;;;;;5007294;28;20031;-62
2021/08/12 01:18:07;;;;;;;7.65;5.95;;;;;;;;;;4995374;28;20034;-62
2021/08/12 01:20:52;;;;;;;7.97;6.05;;;;;;;;;;5005937;28;21726;-62
2021/08/12 01:23:20;;;;;;;9.35;6.80;;;;;;;;;;5003552;28;20710;-62
2021/08/12 01:25:47;;;;;;;8.68;6.95;;;;;;;;;;5012596;28;20034;-62
2021/08/12 01:28:22;;;;;;;8.52;7.32;;;;;;;;;;5002804;28;20093;-62
2021/08/12 01:30:51;;;;;;;10.80;6.80;;;;;;;;;;4999182;28;20116;-62
2021/08/12 01:33:25;;;;;;;15.13;7.15;;;;;;;;;;5003946;28;20030;-62
2021/08/12 01:35:52;;;;;;;9.70;7.13;;;;;;;;;;5009805;28;20022;-62
2021/08/12 01:38:22;;;;;;;12.10;7.50;;;;;;;;;;5010669;28;20101;-62
2021/08/12 01:40:50;;;;;;;13.75;7.35;;;;;;;;;;5010545;28;20120;-62
2021/08/12 01:43:17;;;;;;;7.90;6.88;;;;;;;;;;5007342;28;20026;-62
2021/08/12 01:45:47;;;;;;;9.82;7.25;;;;;;;;;;5002406;28;20034;-62
2021/08/12 01:48:13;;;;;;;11.05;7.65;;;;;;;;;;4999754;28;20034;-62
2021/08/12 01:50:39;;;;;;;9.57;7.97;;;;;;;;;;5012158;28;20517;-62
2021/08/12 01:53:05;;;;;;;10.60;8.18;;;;;;;;;;5008792;28;20499;-62
2021/08/12 01:55:33;;;;;;;9.48;7.50;;;;;;;;;;5009627;28;20050;-62
2021/08/12 01:57:59;;;;;;;11.43;8.07;;;;;;;;;;5007337;28;20022;-62
2021/08/12 02:00:29;;;;;;;8.05;6.68;;;;;;;;;;4999239;28;20109;-62
2021/08/12 02:02:56;;;;;;;8.75;6.65;;;;;;;;;;5010913;28;20045;-62
2021/08/12 02:05:22;;;;;;;8.23;6.97;;;;;;;;;;5006936;28;20031;-62
2021/08/12 02:07:48;;;;;;;9.43;6.80;;;;;;;;;;5009040;28;20108;-62
2021/08/12 02:10:15;;;;;;;8.75;5.97;;;;;;;;;;4999799;28;20081;-62
2021/08/12 02:12:41;;;;;;;10.60;6.20;;;;;;;;;;5011827;28;20030;-62
2021/08/12 02:15:08;;;;;;;6.05;5.45;;;;;;;;;;5008597;28;20112;-62
2021/08/12 02:17:34;;;;;;;8.90;6.70;;;;;;;;;;4999728;28;20021;-62
2021/08/12 02:20:01;;;;;;;12.25;6.13;;;;;;;;;;5001268;28;20050;-62
2021/08/12 02:22:29;;;;;;;8.10;6.72;;;;;;;;;;4993908;28;20172;-62
2021/08/12 02:25:09;;;;;;;7.43;5.80;;;;;;;;;;5005260;28;20112;-62
2021/08/12 02:27:41;;;;;;;8.98;5.97;;;;;;;;;;5003106;28;20038;-62
2021/08/12 02:30:08;;;;;;;9.60;6.50;;;;;;;;;;5006264;28;20088;-62
2021/08/12 02:32:35;;;;;;;7.22;6.10;;;;;;;;;;5009921;28;20030;-62
2021/08/12 02:35:01;;;;;;;8.57;6.78;;;;;;;;;;5009092;28;20026;-62
2021/08/12 02:37:28;;;;;;;12.02;6.75;;;;;;;;;;5010996;28;20544;-62
2021/08/12 02:39:55;;;;;;;10.38;7.07;;;;;;;;;;5011810;28;20132;-62
2021/08/12 02:42:21;;;;;;;7.43;6.10;;;;;;;;;;5008808;28;20441;-62
2021/08/12 02:44:47;;;;;;;7.38;6.30;;;;;;;;;;5001254;28;20538;-62
2021/08/12 02:47:14;;;;;;;7.38;6.15;;;;;;;;;;4999322;28;20692;-62
2021/08/12 02:49:43;;;;;;;7.65;6.47;;;;;;;;;;5004808;28;20133;-62
2021/08/12 02:52:10;;;;;;;8.00;6.65;;;;;;;;;;5005182;28;20159;-62
2021/08/12 02:54:37;;;;;;;7.32;6.40;;;;;;;;;;5012503;28;20023;-62
2021/08/12 02:57:03;;;;;;;8.05;6.60;;;;;;;;;;5010279;28;20479;-62
2021/08/12 02:59:30;;;;;;;12.65;7.32;;;;;;;;;;5003818;28;20645;-62
2021/08/12 03:01:56;;;;;;;9.93;7.03;;;;;;;;;;5009495;28;20032;-62
2021/08/12 03:04:22;;;;;;;7.35;5.82;;;;;;;;;;5015995;28;20108;-62
2021/08/12 03:06:50;;;;;;;8.55;6.53;;;;;;;;;;5005132;28;20034;-62
2021/08/12 03:09:16;;;;;;;8.35;5.85;;;;;;;;;;5001674;28;20060;-62
2021/08/12 03:11:43;;;;;;;14.60;6.95;;;;;;;;;;5015163;28;20367;-62
2021/08/12 03:14:10;;;;;;;8.75;6.85;;;;;;;;;;5004848;28;20462;-62
2021/08/12 03:16:37;;;;;;;7.40;6.38;;;;;;;;;;5001195;28;20109;-62
2021/08/12 03:19:04;;;;;;;12.38;7.50;;;;;;;;;;5009063;28;20029;-62
2021/08/12 03:21:29;;;;;;;9.15;6.55;;;;;;;;;;5004716;28;20036;-62
2021/08/12 03:24:01;;;;;;;7.45;6.18;;;;;;;;;;5009336;28;20022;-62
2021/08/12 03:26:27;;;;;;;7.97;6.65;;;;;;;;;;5007974;28;20084;-62
2021/08/12 03:28:53;;;;;;;9.20;6.05;;;;;;;;;;5009044;28;20034;-62
2021/08/12 03:31:22;;;;;;;7.55;6.18;;;;;;;;;;5009590;28;20375;-62
2021/08/12 03:33:48;;;;;;;6.68;5.68;;;;;;;;;;5007794;28;20783;-62
2021/08/12 03:36:14;;;;;;;6.57;5.28;;;;;;;;;;5008690;28;20058;-62
2021/08/12 03:38:39;;;;;;;11.23;6.80;;;;;;;;;;5008587;28;20037;-62
2021/08/12 03:41:05;;;;;;;12.15;6.68;;;;;;;;;;5008930;28;20065;-62
2021/08/12 03:43:32;;;;;;;7.93;6.13;;;;;;;;;;5009652;28;20069;-62
2021/08/12 03:45:58;;;;;;;13.73;7.18;;;;;;;;;;5009323;28;20017;-62
2021/08/12 03:48:24;;;;;;;8.25;6.07;;;;;;;;;;5010317;28;20172;-62
2021/08/12 03:50:50;;;;;;;8.77;7.30;;;;;;;;;;5012428;28;20444;-62
2021/08/12 03:53:16;;;;;;;9.13;7.20;;;;;;;;;;5011736;28;20769;-62
2021/08/12 03:55:42;;;;;;;8.48;6.65;;;;;;;;;;5011700;28;20117;-62
2021/08/12 03:58:08;;;;;;;8.75;6.88;;;;;;;;;;5011655;28;20056;-62
2021/08/12 04:00:34;;;;;;;10.82;7.30;;;;;;;;;;5007843;28;20022;-62
2021/08/12 04:03:00;;;;;;;8.88;7.13;;;;;;;;;;5007263;28;20046;-62
2021/08/12 04:05:26;;;;;;;9.57;7.18;;;;;;;;;;5011157;28;20112;-62
2021/08/12 04:07:52;;;;;;;10.25;6.82;;;;;;;;;;5011715;28;20049;-62
2021/08/12 04:10:18;;;;;;;10.90;6.57;;;;;;;;;;5011875;28;20046;-62
2021/08/12 04:12:44;;;;;;;11.50;7.05;;;;;;;;;;5008838;28;20144;-62
2021/08/12 04:15:10;;;;;;;9.68;6.72;;;;;;;;;;5013733;28;20041;-62
2021/08/12 04:17:36;;;;;;;11.10;6.78;;;;;;;;;;5010751;28;20026;-62
2021/08/12 04:20:03;;;;;;;10.20;7.22;;;;;;;;;;5013290;28;20044;-62
2021/08/12 04:22:29;;;;;;;10.65;6.72;;;;;;;;;;5008436;28;20108;-62
2021/08/12 04:24:55;;;;;;;7.88;6.75;;;;;;;;;;5006197;28;20359;-62
2021/08/12 04:27:20;;;;;;;8.07;6.57;;;;;;;;;;5014342;28;20033;-62
2021/08/12 04:29:46;;;;;;;9.70;6.93;;;;;;;;;;5008307;28;20030;-62
2021/08/12 04:32:12;;;;;;;9.60;7.20;;;;;;;;;;5011289;28;20064;-62
2021/08/12 04:34:38;;;;;;;8.32;6.07;;;;;;;;;;5005660;28;20336;-62
2021/08/12 04:37:04;;;;;;;7.57;6.07;;;;;;;;;;5014090;28;20120;-62
2021/08/12 04:39:30;;;;;;;8.80;5.82;;;;;;;;;;5011903;28;20718;-62
2021/08/12 04:41:56;;;;;;;6.68;5.70;;;;;;;;;;5013600;28;20028;-62
2021/08/12 04:44:22;;;;;;;8.68;5.72;;;;;;;;;;5008114;28;20088;-62
2021/08/12 04:46:48;;;;;;;7.68;5.82;;;;;;;;;;4996214;28;20034;-62
2021/08/12 04:49:14;;;;;;;7.38;5.85;;;;;;;;;;5006235;28;20066;-62
2021/08/12 04:51:42;;;;;;;9.13;5.60;;;;;;;;;;5011316;28;20053;-62
2021/08/12 04:54:08;;;;;;;10.23;5.75;;;;;;;;;;5008090;28;20027;-62
2021/08/12 04:56:34;;;;;;;8.65;5.75;;;;;;;;;;5012139;28;20026;-62
2021/08/12 04:59:00;;;;;;;7.28;5.72;;;;;;;;;;5001769;28;20027;-62
2021/08/12 05:01:26;;;;;;;9.93;5.57;;;;;;;;;;5010838;28;20074;-63
2021/08/12 05:03:52;;;;;;;8.70;6.80;;;;;;;;;;5008945;28;20598;-62
2021/08/12 05:06:18;;;;;;;7.78;6.00;;;;;;;;;;5000392;28;20035;-62
2021/08/12 05:08:44;;;;;;;7.72;6.18;;;;;;;;;;5008690;28;21224;-62
2021/08/12 05:11:13;;;;;;;8.60;6.03;;;;;;;;;;5006454;28;20041;-62
2021/08/12 05:13:39;;;;;;;8.77;6.00;;;;;;;;;;5007384;28;20340;-62
2021/08/12 05:16:05;;;;;;;8.98;6.43;;;;;;;;;;5007062;28;20097;-62
2021/08/12 05:18:31;;;;;;;9.48;5.88;;;;;;;;;;5022042;28;20168;-62
2021/08/12 05:20:57;;;;;;;11.38;6.40;;;;;;;;;;5010538;28;20515;-62
2021/08/12 05:23:23;;;;;;;7.55;6.10;;;;;;;;;;5008503;28;20057;-62
2021/08/12 05:25:49;;;;;;;8.88;6.85;;;;;;;;;;5009936;28;20049;-62
2021/08/12 05:28:15;;;;;;;9.35;6.90;;;;;;;;;;5007373;28;20485;-62
2021/08/12 05:30:41;;;;;;;8.27;6.35;;;;;;;;;;5009484;28;20124;-61
2021/08/12 05:33:08;;;;;;;6.68;5.75;;;;;;;;;;5000297;28;20199;-62
2021/08/12 05:35:34;;;;;;;7.65;5.70;;;;;;;;;;5004609;28;20051;-62
2021/08/12 05:38:00;;;;;;;10.00;5.57;;;;;;;;;;5005852;28;20393;-62
2021/08/12 05:40:25;;;;;;;7.40;6.00;;;;;;;;;;5007927;28;20052;-60
2021/08/12 05:42:51;;;;;;;9.00;6.75;;;;;;;;;;5012479;28;20168;-62
2021/08/12 05:45:17;;;;;;;10.88;5.88;;;;;;;;;;5010159;28;20026;-62
2021/08/12 05:47:43;;;;;;;8.48;6.47;;;;;;;;;;5002751;28;20026;-62
2021/08/12 05:50:09;;;;;;;7.82;5.90;;;;;;;;;;5000233;28;20022;-63
2021/08/12 05:52:37;;;;;;;9.75;6.75;;;;;;;;;;5000089;28;20026;-62
2021/08/12 05:55:03;;;;;;;8.65;6.80;;;;;;;;;;4999616;28;20061;-62
2021/08/12 05:57:29;;;;;;;8.15;6.75;;;;;;;;;;5004962;28;20109;-62
2021/08/12 05:59:55;;;;;;;10.15;7.20;;;;;;;;;;5005975;28;20029;-62
2021/08/12 06:02:21;;;;;;;10.00;6.90;;;;;;;;;;5005999;28;20037;-62
2021/08/12 06:04:47;;;;;;;7.97;6.82;;;;;;;;;;5006053;28;20025;-62
2021/08/12 06:07:14;;;;;;;10.52;6.28;;;;;;;;;;4999598;28;20030;-62
2021/08/12 06:09:39;;;;;;;9.50;6.93;;;;;;;;;;5008826;28;20129;-62
2021/08/12 06:12:06;;;;;;;8.68;6.78;;;;;;;;;;5012527;28;20026;-62
2021/08/12 06:14:32;;;;;;;12.65;7.30;;;;;;;;;;5005433;28;20890;-62
2021/08/12 06:16:58;;;;;;;9.80;6.50;;;;;;;;;;5006077;28;20476;-62
2021/08/12 06:19:24;;;;;;;6.97;5.90;;;;;;;;;;5000106;28;20026;-62
2021/08/12 06:21:50;;;;;;;7.28;5.97;;;;;;;;;;5007050;28;20033;-62
2021/08/12 06:24:16;;;;;;;6.72;5.57;;;;;;;;;;5012641;28;20030;-62
2021/08/12 06:26:43;;;;;;;8.43;6.25;;;;;;;;;;5010905;28;20429;-62
2021/08/12 06:29:10;;;;;;;7.45;5.85;;;;;;;;;;4996213;28;20026;-62
2021/08/12 06:31:37;;;;;;;7.05;5.88;;;;;;;;;;5007254;28;20026;-62
2021/08/12 06:34:02;;;;;;;7.88;6.30;;;;;;;;;;4998391;28;20033;-62
2021/08/12 06:36:28;;;;;;;7.18;5.20;;;;;;;;;;4998723;28;20570;-62
2021/08/12 06:38:59;;;;;;;8.27;5.25;;;;;;;;;;5023182;28;20069;-62
2021/08/12 06:41:25;;;;;;;5.68;4.35;;;;;;;;;;5005707;28;20022;-62
2021/08/12 06:43:51;;;;;;;8.65;5.18;;;;;;;;;;5010511;28;20574;-63
2021/08/12 06:46:17;;;;;;;6.78;5.25;;;;;;;;;;5009817;28;20050;-63
2021/08/12 06:48:43;;;;;;;6.80;5.00;;;;;;;;;;5000948;28;20025;-62
2021/08/12 06:51:09;;;;;;;7.30;5.35;;;;;;;;;;5009220;28;20509;-63
2021/08/12 06:53:35;;;;;;;6.32;4.95;;;;;;;;;;5001588;28;20092;-63
2021/08/12 06:56:02;;;;;;;6.05;4.97;;;;;;;;;;5009507;28;20018;-63
2021/08/12 06:58:28;;;;;;;6.47;4.78;;;;;;;;;;5002326;28;20389;-63
2021/08/12 07:00:54;;;;;;;6.20;4.10;;;;;;;;;;5006845;28;20030;-62
2021/08/12 07:03:20;;;;;;;3.95;3.55;;;;;;;;;;5002255;28;20092;-62
2021/08/12 07:05:46;;;;;;;5.22;3.97;;;;;;;;;;5010428;28;20382;-62
2021/08/12 07:08:12;;;;;;;4.80;3.53;;;;;;;;;;5001796;28;20030;-62
2021/08/12 07:10:38;;;;;;;5.80;3.65;;;;;;;;;;5008683;28;20057;-62
2021/08/12 07:13:04;;;;;;;6.45;4.22;;;;;;;;;;5011890;28;20041;-62
2021/08/12 07:15:30;;;;;;;6.95;4.30;;;;;;;;;;4998056;28;20065;-62
2021/08/12 07:17:56;;;;;;;4.68;3.90;;;;;;;;;;5002079;28;20037;-62
2021/08/12 07:20:22;;;;;;;6.00;3.75;;;;;;;;;;4999079;28;20033;-62
2021/08/12 07:22:48;;;;;;;4.45;3.35;;;;;;;;;;5011845;28;20026;-62
2021/08/12 07:25:14;;;;;;;7.00;3.50;;;;;;;;;;5011706;28;20069;-62
2021/08/12 07:27:40;;;;;;;6.22;3.70;;;;;;;;;;5001374;28;20027;-62
2021/08/12 07:30:07;;;;;;;6.70;3.40;;;;;;;;;;5005293;28;20031;-62
2021/08/12 07:32:33;;;;;;;5.07;3.90;;;;;;;;;;5009921;28;20087;-62
2021/08/12 07:34:59;;;;;;;3.40;3.00;;;;;;;;;;4998576;28;20014;-62
2021/08/12 07:37:25;;;;;;;4.68;3.53;;;;;;;;;;5010366;28;20124;-62
2021/08/12 07:39:51;;;;;;;5.32;3.58;;;;;;;;;;5014662;28;20030;-62
2021/08/12 07:42:20;;;;;;;5.53;3.47;;;;;;;;;;5007055;28;20374;-61
2021/08/12 07:44:47;;;;;;;3.83;3.13;;;;;;;;;;5011523;28;20025;-61
2021/08/12 07:47:13;;;;;;;4.00;2.67;;;;;;;;;;5005791;28;20029;-61
2021/08/12 07:49:39;;;;;;;5.07;3.17;;;;;;;;;;5008476;28;20022;-61
2021/08/12 07:52:05;;;;;;;3.58;2.75;;;;;;;;;;5005777;28;20037;-61
2021/08/12 07:54:31;;;;;;;5.28;3.30;;;;;;;;;;5005727;28;20042;-61
2021/08/12 07:56:57;;;;;;;4.22;2.97;;;;;;;;;;5015311;28;20030;-61
2021/08/12 07:59:23;;;;;;;3.53;2.55;;;;;;;;;;5001670;28;20041;-61
2021/08/12 08:01:49;;;;;;;4.75;2.85;;;;;;;;;;5005074;28;20026;-61
2021/08/12 08:04:15;;;;;;;5.10;3.00;;;;;;;;;;5011204;28;20038;-61
2021/08/12 08:06:41;;;;;;;3.75;2.50;;;;;;;;;;5030260;28;20026;-61
2021/08/12 08:09:07;;;;;;;4.57;2.70;;;;;;;;;;5001477;28;20046;-61
2021/08/12 08:11:33;;;;;;;3.53;2.40;;;;;;;;;;5015077;28;20030;-61
2021/08/12 08:13:59;;;;;;;3.20;2.00;;;;;;;;;;5001177;28;20038;-61
2021/08/12 08:16:27;;;;;;;4.30;2.30;;;;;;;;;;5013238;28;20034;-61
2021/08/12 08:18:53;;;;;;;7.53;2.25;;;;;;;;;;5001948;28;20342;-61
2021/08/12 08:21:19;;;;;;;3.38;1.90;;;;;;;;;;5014058;28;20105;-61
2021/08/12 08:23:45;;;;;;;3.05;1.92;;;;;;;;;;5011699;28;20089;-61
2021/08/12 08:26:11;;;;;;;7.68;2.25;;;;;;;;;;5014543;28;20083;-61
2021/08/12 08:28:37;;;;;;;3.67;2.30;;;;;;;;;;5003887;28;20470;-61
2021/08/12 08:31:03;;;;;;;1.90;1.50;;;;;;;;;;5013219;28;20030;-61
2021/08/12 08:33:35;;;;;;;3.78;1.98;;;;;;;;;;5013961;28;20030;-62
2021/08/12 08:36:01;;;;;;;3.95;2.20;;;;;;;;;;5014368;28;20018;-61
2021/08/12 08:38:27;;;;;;;3.83;2.20;;;;;;;;;;5011958;28;20032;-61
2021/08/12 08:40:53;;;;;;;6.20;2.42;;;;;;;;;;5003973;28;20022;-61
2021/08/12 08:43:19;;;;;;;4.53;1.75;;;;;;;;;;5011309;28;20022;-62
2021/08/12 08:45:47;;;;;;;2.38;1.85;;;;;;;;;;5003780;28;20635;-62
2021/08/12 08:48:15;;;;;;;3.33;2.03;;;;;;;;;;5007235;28;20402;-62
2021/08/12 08:50:41;;;;;;;3.53;1.98;;;;;;;;;;5012294;28;20417;-62
2021/08/12 08:53:07;;;;;;;2.70;1.70;;;;;;;;;;5000943;28;20113;-62
2021/08/12 08:55:34;;;;;;;4.88;2.13;;;;;;;;;;5011974;28;20097;-62
2021/08/12 08:58:00;;;;;;;2.65;1.88;;;;;;;;;;5008981;28;20057;-62
2021/08/12 09:00:26;;;;;;;2.47;1.63;;;;;;;;;;5004722;28;20022;-62
2021/08/12 09:02:52;;;;;;;2.83;2.08;;;;;;;;;;5008698;28;20503;-61
2021/08/12 09:05:18;;;;;;;3.40;1.90;;;;;;;;;;5006156;28;20036;-61
2021/08/12 09:07:45;;;;;;;2.88;2.00;;;;;;;;;;5013365;28;20101;-61
2021/08/12 09:10:16;;;;;;;5.05;2.20;;;;;;;;;;5002217;28;20099;-61
2021/08/12 09:12:43;;;;;;;3.42;2.00;;;;;;;;;;5007388;28;20038;-62
2021/08/12 09:15:09;;;;;;;3.53;2.30;;;;;;;;;;5006925;28;20026;-61
2021/08/12 09:17:36;;;;;;;5.18;2.08;;;;;;;;;;5011831;28;20425;-61
2021/08/12 09:20:02;;;;;;;3.03;1.98;;;;;;;;;;5000878;28;20036;-62
2021/08/12 09:22:29;;;;;;;5.05;2.28;;;;;;;;;;5013363;28;20026;-62
2021/08/12 09:24:55;;;;;;;4.88;2.13;;;;;;;;;;5008276;28;20030;-62
2021/08/12 09:27:22;;;;;;;7.03;1.80;;;;;;;;;;5000447;28;20036;-62
2021/08/12 09:29:48;;;;;;;3.47;1.92;;;;;;;;;;5000374;28;20109;-62
2021/08/12 09:32:16;;;;;;;3.13;1.80;;;;;;;;;;5002745;28;20109;-62
2021/08/12 09:34:46;;;;;;;5.20;2.05;;;;;;;;;;5000348;28;20157;-62
2021/08/12 09:37:13;;;;;;;3.75;2.00;;;;;;;;;;5012667;28;20096;-62
2021/08/12 09:39:39;;;;;;;3.10;2.00;;;;;;;;;;5012304;28;20027;-62
2021/08/12 09:42:06;;;;;;;4.65;1.67;;;;;;;;;;5006140;28;20105;-62
2021/08/12 09:44:33;;;;;;;2.67;2.00;;;;;;;;;;5007296;28;20037;-62
2021/08/12 09:47:00;;;;;;;2.05;1.73;;;;;;;;;;5005677;28;20109;-62
2021/08/12 09:49:35;;;;;;;3.78;2.13;;;;;;;;;;5006304;28;20026;-62
2021/08/12 09:52:15;;;;;;;1.95;1.58;;;;;;;;;;5002571;28;20095;-62
2021/08/12 09:54:41;;;;;;;3.67;2.30;;;;;;;;;;4999563;28;20034;-62
2021/08/12 09:57:17;;;;;;;3.80;1.80;;;;;;;;;;5013023;28;20386;-62
2021/08/12 09:59:49;;;;;;;2.50;1.80;;;;;;;;;;4999737;28;20030;-62
2021/08/12 10:02:15;;;;;;;3.17;1.70;;;;;;;;;;4999621;28;20022;-62
2021/08/12 10:04:41;;;;;;;2.78;1.95;;;;;;;;;;5011947;28;20268;-62
2021/08/12 10:07:07;;;;;;;4.07;1.95;;;;;;;;;;5011976;28;20100;-62
2021/08/12 10:09:40;;;;;;;3.05;1.77;;;;;;;;;;4998721;28;20207;-62
2021/08/12 10:12:07;;;;;;;3.15;1.85;;;;;;;;;;5006786;28;20030;-62
2021/08/12 10:14:33;;;;;;;2.60;1.95;;;;;;;;;;5001532;28;20125;-62
2021/08/12 10:16:59;;;;;;;2.53;1.90;;;;;;;;;;5009657;28;20105;-62
2021/08/12 10:19:25;;;;;;;3.60;1.60;;;;;;;;;;5012038;28;20030;-62
2021/08/12 10:21:51;;;;;;;3.33;1.65;;;;;;;;;;5007986;28;20022;-62
2021/08/12 10:24:19;;;;;;;2.78;1.92;;;;;;;;;;5001781;28;20109;-61
2021/08/12 10:26:45;;;;;;;4.72;1.98;;;;;;;;;;5010184;28;20030;-62
2021/08/12 10:29:12;;;;;;;3.30;1.52;;;;;;;;;;5001758;28;20357;-62
2021/08/12 10:31:39;;;;;;;2.42;1.58;;;;;;;;;;4999331;28;20037;-61
2021/08/12 10:34:06;;;;;;;2.60;1.77;;;;;;;;;;5002520;28;20034;-62
2021/08/12 10:36:32;;;;;;;5.40;1.92;;;;;;;;;;4999289;28;20022;-62
2021/08/12 10:38:59;;;;;;;3.00;1.73;;;;;;;;;;5011969;28;20030;-61
2021/08/12 10:41:25;;;;;;;6.95;1.75;;;;;;;;;;5012515;28;20357;-62
2021/08/12 10:43:53;;;;;;;2.35;1.40;;;;;;;;;;5010732;28;20025;-62
2021/08/12 10:46:36;;;;;;;3.85;1.70;;;;;;;;;;4999870;28;20049;-61
2021/08/12 10:49:20;;;;;;;3.80;1.48;;;;;;;;;;5000860;28;20050;-62
2021/08/12 10:51:51;;;;;;;1.95;1.55;;;;;;;;;;4999907;28;20025;-62
2021/08/12 10:54:18;;;;;;;2.42;1.50;;;;;;;;;;4999223;28;20491;-61
2021/08/12 10:56:44;;;;;;;2.45;1.50;;;;;;;;;;5011473;28;20018;-62
2021/08/12 10:59:10;;;;;;;2.10;1.35;;;;;;;;;;5005191;28;20140;-62
2021/08/12 11:01:38;;;;;;;2.60;1.67;;;;;;;;;;5004976;28;20026;-62
2021/08/12 11:04:04;;;;;;;2.47;1.73;;;;;;;;;;4998920;28;20042;-62
2021/08/12 11:06:41;;;;;;;1.63;1.30;;;;;;;;;;5014080;28;20038;-62
2021/08/12 11:09:08;;;;;;;2.65;1.58;;;;;;;;;;5005529;28;20049;-61
2021/08/12 11:11:34;;;;;;;4.75;2.10;;;;;;;;;;5001063;28;20112;-62
2021/08/12 11:14:04;;;;;;;5.18;1.88;;;;;;;;;;5017037;28;20481;-62
2021/08/12 11:16:42;;;;;;;3.40;1.75;;;;;;;;;;5005178;28;20037;-62
2021/08/12 11:19:09;;;;;;;2.60;1.50;;;;;;;;;;5009292;28;20031;-62
2021/08/12 11:21:35;;;;;;;5.93;1.92;;;;;;;;;;5009072;28;20017;-62
2021/08/12 11:24:03;;;;;;;2.83;1.65;;;;;;;;;;5005396;28;20026;-62
2021/08/12 11:26:44;;;;;;;3.63;1.70;;;;;;;;;;5002855;28;20467;-61
2021/08/12 11:29:27;;;;;;;3.25;2.00;;;;;;;;;;5004311;28;20038;-61
2021/08/12 11:32:15;;;;;;;2.75;1.67;;;;;;;;;;5002659;28;20072;-62
2021/08/12 11:34:53;;;;;;;3.20;1.70;;;;;;;;;;5009146;28;20145;-61
2021/08/12 11:37:20;;;;;;;2.17;1.33;;;;;;;;;;5014880;28;20083;-62
2021/08/12 11:40:06;;;;;;;3.70;1.67;;;;;;;;;;5014111;28;20403;-62
2021/08/12 11:42:33;;;;;;;2.88;1.60;;;;;;;;;;5006404;28;20026;-62
2021/08/12 11:45:08;;;;;;;3.25;1.48;;;;;;;;;;5010949;28;20033;-62
2021/08/12 11:47:34;;;;;;;6.53;1.70;;;;;;;;;;5002166;28;20512;-62
2021/08/12 11:50:01;;;;;;;5.18;2.15;;;;;;;;;;5002361;28;20034;-62
2021/08/12 11:52:27;;;;;;;2.58;1.52;;;;;;;;;;4999227;28;20027;-61
2021/08/12 11:54:54;;;;;;;2.00;1.48;;;;;;;;;;5012300;28;20030;-61
2021/08/12 11:57:20;;;;;;;3.10;1.58;;;;;;;;;;5002673;28;20100;-61
2021/08/12 11:59:46;;;;;;;2.20;1.40;;;;;;;;;;5008364;28;20117;-62
2021/08/12 12:02:13;;;;;;;3.00;1.55;;;;;;;;;;5007773;28;20034;-62
2021/08/12 12:04:40;;;;;;;6.13;1.80;;;;;;;;;;5014534;28;20144;-62
2021/08/12 12:07:06;;;;;;;2.28;1.30;;;;;;;;;;5017516;28;20544;-62
2021/08/12 12:09:32;;;;;;;4.07;1.70;;;;;;;;;;5007873;28;20046;-62
2021/08/12 12:12:02;;;;;;;2.20;1.70;;;;;;;;;;5008844;28;20109;-62
2021/08/12 12:14:33;;;;;;;1.75;1.40;;;;;;;;;;5004331;28;20065;-62
2021/08/12 12:17:05;;;;;;;3.00;1.55;;;;;;;;;;5024528;28;20029;-62
2021/08/12 12:19:31;;;;;;;2.28;1.58;;;;;;;;;;5003926;28;20032;-62
2021/08/12 12:21:57;;;;;;;2.80;1.70;;;;;;;;;;5014554;28;20402;-62
2021/08/12 12:24:23;;;;;;;2.45;1.02;;;;;;;;;;5007905;28;20026;-62
2021/08/12 12:26:56;;;;;;;2.58;1.23;;;;;;;;;;5007751;28;21350;-62
2021/08/12 12:29:23;;;;;;;2.85;1.80;;;;;;;;;;5013251;28;20026;-61
2021/08/12 12:31:59;;;;;;;1.70;1.30;;;;;;;;;;5006601;28;20026;-62
2021/08/12 12:34:25;;;;;;;5.05;1.55;;;;;;;;;;5014052;28;20038;-62
2021/08/12 12:36:51;;;;;;;3.88;1.77;;;;;;;;;;5003803;28;20469;-62
2021/08/12 12:39:23;;;;;;;2.67;1.40;;;;;;;;;;5008866;28;20109;-62
2021/08/12 12:41:49;;;;;;;3.60;1.67;;;;;;;;;;5006815;28;20025;-62
2021/08/12 12:44:15;;;;;;;3.50;1.45;;;;;;;;;;5005708;28;20030;-62
2021/08/12 12:46:42;;;;;;;4.22;1.70;;;;;;;;;;5008663;28;20030;-62
2021/08/12 12:49:37;;;;;;;2.28;1.42;;;;;;;;;;5006373;28;20025;-62
2021/08/12 12:52:07;;;;;;;4.50;1.70;;;;;;;;;;4997762;28;20049;-62
2021/08/12 12:54:33;;;;;;;3.67;1.75;;;;;;;;;;5006281;28;20038;-62
2021/08/12 12:57:00;;;;;;;4.07;1.52;;;;;;;;;;4999596;28;20164;-62
2021/08/12 12:59:26;;;;;;;3.20;1.63;;;;;;;;;;5005870;28;20044;-62
2021/08/12 13:01:56;;;;;;;1.98;1.50;;;;;;;;;;5007248;28;20056;-62
2021/08/12 13:04:22;;;;;;;2.38;1.45;;;;;;;;;;5020306;28;20544;-62
2021/08/12 13:06:48;;;;;;;2.28;1.60;;;;;;;;;;5006405;28;20038;-60
2021/08/12 13:09:30;;;;;;;2.45;1.70;;;;;;;;;;5006446;28;20046;-60
2021/08/12 13:11:56;;;;;;;6.82;1.70;;;;;;;;;;5010747;28;20496;-60
2021/08/12 13:14:22;;;;;;;2.38;1.50;;;;;;;;;;5010120;28;20040;-60
2021/08/12 13:16:50;;;;;;;2.50;1.60;;;;;;;;;;5005004;28;20609;-60
2021/08/12 13:19:18;;;;;;;3.58;1.88;;;;;;;;;;5012326;28;20036;-61
2021/08/12 13:21:43;;;;;;;1.67;1.30;;;;;;;;;;5013142;28;20108;-61
2021/08/12 13:24:14;;;;;;;2.38;1.58;;;;;;;;;;5012441;28;20473;-61
2021/08/12 13:26:41;;;;;;;2.10;1.67;;;;;;;;;;5013495;28;20026;-61
2021/08/12 13:29:09;;;;;;;2.47;1.48;;;;;;;;;;5011823;28;20485;-61
2021/08/12 13:31:36;;;;;;;4.05;1.50;;;;;;;;;;5009128;28;20108;-61
2021/08/12 13:34:02;;;;;;;3.35;1.55;;;;;;;;;;5010291;28;20198;-61
2021/08/12 13:36:28;;;;;;;1.58;1.45;;;;;;;;;;5006804;28;20513;-60
2021/08/12 13:38:54;;;;;;;4.15;1.50;;;;;;;;;;5011401;28;20034;-60
2021/08/12 13:41:20;;;;;;;2.67;1.50;;;;;;;;;;5008687;28;20026;-60
2021/08/12 13:43:46;;;;;;;3.90;1.52;;;;;;;;;;5008230;28;20026;-60
2021/08/12 13:46:12;;;;;;;4.20;1.48;;;;;;;;;;5012225;28;20033;-60
2021/08/12 13:48:38;;;;;;;2.50;1.70;;;;;;;;;;5009297;28;20028;-60
2021/08/12 13:51:05;;;;;;;3.38;1.80;;;;;;;;;;5008449;28;20084;-60
2021/08/12 13:53:31;;;;;;;4.03;1.65;;;;;;;;;;5009603;28;20568;-60
2021/08/12 13:55:57;;;;;;;2.85;1.45;;;;;;;;;;5007741;28;20014;-60
2021/08/12 13:58:23;;;;;;;2.28;1.50;;;;;;;;;;5010958;28;20408;-60
2021/08/12 14:00:49;;;;;;;1.95;1.45;;;;;;;;;;5012381;28;20021;-60
2021/08/12 14:03:21;;;;;;;4.22;1.80;;;;;;;;;;5011205;28;20112;-60
2021/08/12 14:05:47;;;;;;;2.00;1.30;;;;;;;;;;5003881;28;20033;-60
2021/08/12 14:08:15;;;;;;;1.52;1.20;;;;;;;;;;5010980;28;20025;-60
2021/08/12 14:10:41;;;;;;;3.10;1.60;;;;;;;;;;5011400;28;20065;-60
2021/08/12 14:13:07;;;;;;;2.53;1.38;;;;;;;;;;5012611;28;20034;-60
2021/08/12 14:15:34;;;;;;;1.70;1.30;;;;;;;;;;5010900;28;20046;-60
2021/08/12 14:18:00;;;;;;;1.83;1.15;;;;;;;;;;5012061;28;20033;-60
2021/08/12 14:20:26;;;;;;;2.15;1.55;;;;;;;;;;5011034;28;20037;-61
2021/08/12 14:22:52;;;;;;;2.47;1.50;;;;;;;;;;5011215;28;20451;-60
2021/08/12 14:25:18;;;;;;;2.13;1.42;;;;;;;;;;5004480;28;20077;-61
2021/08/12 14:27:47;;;;;;;1.77;1.13;;;;;;;;;;5005902;28;20033;-60
2021/08/12 14:30:13;;;;;;;2.78;1.40;;;;;;;;;;5009511;28;20477;-60
2021/08/12 14:32:39;;;;;;;2.03;1.30;;;;;;;;;;5008196;28;20133;-60
2021/08/12 14:35:05;;;;;;;19.27;2.50;;;;;;;;;;5006585;28;20022;-60
2021/08/12 14:37:31;;;;;;;2.30;1.50;;;;;;;;;;5008404;28;20025;-60
2021/08/12 14:40:02;;;;;;;1.90;1.40;;;;;;;;;;5010827;28;20459;-60
2021/08/12 14:42:28;;;;;;;2.33;1.27;;;;;;;;;;5009707;28;20473;-60